createdAt,value
2018-01-28T00:01:00.909Z,8.30
2018-01-28T00:03:28.847Z,5.85
2018-01-28T00:05:56.384Z,7.60
2018-01-28T00:08:23.969Z,8.27
2018-01-28T00:10:53.221Z,9.60
2018-01-28T00:13:20.894Z,8.88
2018-01-28T00:15:48.454Z,8.93
2018-01-28T00:18:16.762Z,7.40
2018-01-28T00:20:44.369Z,9.20
2018-01-28T00:23:12.804Z,10.85
2018-01-28T00:25:40.373Z,9.43
2018-01-28T00:28:07.956Z,9.90
2018-01-28T00:30:36.344Z,9.30
2018-01-28T00:33:03.911Z,10.00
2018-01-28T00:35:32.243Z,9.10
2018-01-28T00:38:00.607Z,9.60
2018-01-28T00:40:28.204Z,10.23
2018-01-28T00:42:55.729Z,4.60
2018-01-28T00:45:23.284Z,8.90
2018-01-28T00:47:50.800Z,9.63
2018-01-28T00:50:19.175Z,9.07
2018-01-28T00:52:46.752Z,11.23
2018-01-28T00:55:15.096Z,9.65
2018-01-28T00:57:43.149Z,8.70
2018-01-28T01:00:10.728Z,8.93
2018-01-28T01:02:38.321Z,9.93
2018-01-28T01:05:05.911Z,10.40
2018-01-28T01:07:33.436Z,6.97
2018-01-28T01:10:01.797Z,10.15
2018-01-28T01:12:29.357Z,9.45
2018-01-28T01:14:56.959Z,10.07
2018-01-28T01:17:24.518Z,10.63
2018-01-28T01:19:52.885Z,8.55
2018-01-28T01:22:20.423Z,9.50
2018-01-28T01:24:48.772Z,10.55
2018-01-28T01:27:16.447Z,10.52
2018-01-28T01:29:44.020Z,8.07
2018-01-28T01:32:11.584Z,10.95
2018-01-28T01:34:39.920Z,10.73
2018-01-28T01:37:07.474Z,10.07
2018-01-28T01:39:35.118Z,9.90
2018-01-28T01:42:02.708Z,8.20
2018-01-28T01:44:30.332Z,8.23
2018-01-28T01:46:57.879Z,10.20
2018-01-28T01:49:35.130Z,8.23
2018-01-28T01:52:02.714Z,8.95
2018-01-28T01:54:31.910Z,9.05
2018-01-28T01:56:59.526Z,9.70
2018-01-28T01:59:27.250Z,9.40
2018-01-28T02:01:54.791Z,9.00
2018-01-28T02:04:23.230Z,9.38
2018-01-28T02:06:50.748Z,10.15
2018-01-28T02:09:19.111Z,7.72
2018-01-28T02:11:46.662Z,8.68
2018-01-28T02:14:14.232Z,9.75
2018-01-28T02:16:41.786Z,7.85
2018-01-28T02:19:09.342Z,9.02
2018-01-28T02:21:37.772Z,9.70
2018-01-28T02:24:05.347Z,8.98
2018-01-28T02:26:32.931Z,9.63
2018-01-28T02:29:00.485Z,10.23
2018-01-28T02:31:28.030Z,9.05
2018-01-28T02:33:55.579Z,8.63
2018-01-28T02:36:25.535Z,10.23
2018-01-28T02:38:53.097Z,9.48
2018-01-28T02:41:20.628Z,10.30
2018-01-28T02:43:48.231Z,9.48
2018-01-28T02:46:16.546Z,10.13
2018-01-28T02:48:44.902Z,8.43
2018-01-28T02:51:13.295Z,10.38
2018-01-28T02:53:40.878Z,9.95
2018-01-28T02:56:09.283Z,11.30
2018-01-28T02:58:37.570Z,11.45
2018-01-28T03:01:05.174Z,8.70
2018-01-28T03:03:32.798Z,11.23
2018-01-28T03:06:00.779Z,11.00
2018-01-28T03:08:28.870Z,8.68
2018-01-28T03:10:57.300Z,12.07
2018-01-28T03:13:25.631Z,8.80
2018-01-28T03:15:53.197Z,11.23
2018-01-28T03:18:20.787Z,10.90
2018-01-28T03:20:49.206Z,11.35
2018-01-28T03:23:17.584Z,11.45
2018-01-28T03:25:45.902Z,10.63
2018-01-28T03:28:14.350Z,10.65
2018-01-28T03:30:41.902Z,11.77
2018-01-28T03:33:10.245Z,10.48
2018-01-28T03:35:37.781Z,8.02
2018-01-28T03:38:05.549Z,10.48
2018-01-28T03:40:33.164Z,11.77
2018-01-28T03:43:00.738Z,11.23
2018-01-28T03:45:29.153Z,10.52
2018-01-28T03:47:56.768Z,9.88
2018-01-28T03:50:24.343Z,10.02
2018-01-28T03:52:52.704Z,10.02
2018-01-28T03:55:20.247Z,9.07
2018-01-28T03:57:47.791Z,9.98
2018-01-28T04:00:15.905Z,9.65
2018-01-28T04:02:43.433Z,8.88
2018-01-28T04:05:11.795Z,9.20
2018-01-28T04:07:39.360Z,8.35
2018-01-28T04:10:06.919Z,9.13
2018-01-28T04:12:34.491Z,9.30
2018-01-28T04:15:02.844Z,8.57
2018-01-28T04:17:31.486Z,9.38
2018-01-28T04:19:59.088Z,8.45
2018-01-28T04:22:26.643Z,8.73
2018-01-28T04:24:54.240Z,10.38
2018-01-28T04:27:21.861Z,9.45
2018-01-28T04:29:50.266Z,8.20
2018-01-28T04:32:18.591Z,10.65
2018-01-28T04:34:46.200Z,10.82
2018-01-28T04:37:13.766Z,9.68
2018-01-28T04:39:42.112Z,8.57
2018-01-28T04:42:09.714Z,7.57
2018-01-28T04:44:37.299Z,9.75
2018-01-28T04:47:04.815Z,10.18
2018-01-28T04:49:34.121Z,10.70
2018-01-28T04:52:02.744Z,8.13
2018-01-28T04:54:31.070Z,10.75
2018-01-28T04:56:59.795Z,9.07
2018-01-28T04:59:27.363Z,9.55
2018-01-28T05:01:55.139Z,8.93
2018-01-28T05:04:23.600Z,9.90
2018-01-28T05:06:51.174Z,10.15
2018-01-28T05:09:18.721Z,10.02
2018-01-28T05:11:46.288Z,9.40
2018-01-28T05:14:13.934Z,11.45
2018-01-28T05:16:41.561Z,10.80
2018-01-28T05:19:09.277Z,9.82
2018-01-28T05:21:36.823Z,10.80
2018-01-28T05:24:04.386Z,11.43
2018-01-28T05:26:31.919Z,10.05
2018-01-28T05:28:59.502Z,10.18
2018-01-28T05:31:27.061Z,12.07
2018-01-28T05:33:54.965Z,13.05
2018-01-28T05:36:23.172Z,12.82
2018-01-28T05:38:50.713Z,14.30
2018-01-28T05:41:18.291Z,13.32
2018-01-28T05:43:46.310Z,14.35
2018-01-28T05:46:13.861Z,15.65
2018-01-28T05:48:41.488Z,14.80
2018-01-28T05:51:09.079Z,13.60
2018-01-28T05:53:36.652Z,14.85
2018-01-28T05:56:04.274Z,15.27
2018-01-28T05:58:31.862Z,14.80
2018-01-28T06:00:59.414Z,15.45
2018-01-28T06:03:27.290Z,16.75
2018-01-28T06:05:54.852Z,16.50
2018-01-28T06:08:22.398Z,15.55
2018-01-28T06:10:50.899Z,16.05
2018-01-28T06:13:18.529Z,16.25
2018-01-28T06:15:46.095Z,15.70
2018-01-28T06:18:14.388Z,14.95
2018-01-28T06:20:41.958Z,15.85
2018-01-28T06:23:09.536Z,16.55
2018-01-28T06:25:37.180Z,15.65
2018-01-28T06:28:06.189Z,15.05
2018-01-28T06:30:33.785Z,15.45
2018-01-28T06:33:01.327Z,18.75
2018-01-28T06:35:29.562Z,16.90
2018-01-28T06:37:57.249Z,16.77
2018-01-28T06:40:24.786Z,18.67
2018-01-28T06:42:52.369Z,19.55
2018-01-28T06:45:19.924Z,20.85
2018-01-28T06:47:47.498Z,19.73
2018-01-28T06:50:15.095Z,21.42
2018-01-28T06:52:43.401Z,18.35
2018-01-28T06:55:10.981Z,18.95
2018-01-28T06:57:38.520Z,21.25
2018-01-28T07:00:06.136Z,21.95
2018-01-28T07:02:33.665Z,23.25
2018-01-28T07:05:01.230Z,21.65
2018-01-28T07:07:28.802Z,21.35
2018-01-28T07:09:57.077Z,21.55
2018-01-28T07:12:24.688Z,24.65
2018-01-28T07:14:53.774Z,23.35
2018-01-28T07:17:22.077Z,13.57
2018-01-28T07:19:49.629Z,23.02
2018-01-28T07:22:17.687Z,23.02
2018-01-28T07:24:46.046Z,24.73
2018-01-28T07:27:13.626Z,22.55
2018-01-28T07:29:42.038Z,24.67
2018-01-28T07:32:09.586Z,22.70
2018-01-28T07:34:37.739Z,24.37
2018-01-28T07:37:06.030Z,21.83
2018-01-28T07:39:33.593Z,20.60
2018-01-28T07:42:01.168Z,22.33
2018-01-28T07:44:28.742Z,20.20
2018-01-28T07:46:56.261Z,17.35
2018-01-28T07:49:23.832Z,19.67
2018-01-28T07:51:51.493Z,18.62
2018-01-28T07:54:19.060Z,18.60
2018-01-28T07:56:47.268Z,19.40
2018-01-28T07:59:15.612Z,20.37
2018-01-28T08:01:43.157Z,18.12
2018-01-28T08:04:10.721Z,19.35
2018-01-28T08:06:38.378Z,15.18
2018-01-28T08:09:05.963Z,17.27
2018-01-28T08:11:36.477Z,16.58
2018-01-28T08:14:04.050Z,17.60
2018-01-28T08:16:31.622Z,15.63
2018-01-28T08:18:59.966Z,17.48
2018-01-28T08:21:27.560Z,16.35
2018-01-28T08:23:55.911Z,17.55
2018-01-28T08:26:24.407Z,15.15
2018-01-28T08:29:07.738Z,17.62
2018-01-28T08:31:36.122Z,16.95
2018-01-28T08:34:04.985Z,19.25
2018-01-28T08:36:33.180Z,16.33
2018-01-28T08:39:01.640Z,17.55
2018-01-28T08:41:30.008Z,17.90
2018-01-28T08:43:58.366Z,17.00
2018-01-28T08:46:26.040Z,19.35
2018-01-28T08:48:53.647Z,17.40
2018-01-28T08:51:21.188Z,17.48
2018-01-28T08:53:48.762Z,16.80
2018-01-28T08:56:16.370Z,17.33
2018-01-28T08:58:43.941Z,18.67
2018-01-28T09:01:12.226Z,19.23
2018-01-28T09:03:40.614Z,18.60
2018-01-28T09:06:08.156Z,18.45
2018-01-28T09:08:36.500Z,17.30
2018-01-28T09:11:04.794Z,18.08
2018-01-28T09:13:32.440Z,18.62
2018-01-28T09:15:59.995Z,18.75
2018-01-28T09:18:27.609Z,19.23
2018-01-28T09:20:55.174Z,19.50
2018-01-28T09:23:22.803Z,19.87
2018-01-28T09:25:51.152Z,20.83
2018-01-28T09:28:19.541Z,21.25
2018-01-28T09:30:47.964Z,22.25
2018-01-28T09:33:16.311Z,18.55
2018-01-28T09:35:43.899Z,22.48
2018-01-28T09:38:12.072Z,22.37
2018-01-28T09:40:39.696Z,23.30
2018-01-28T09:43:07.289Z,21.83
2018-01-28T09:45:35.708Z,22.35
2018-01-28T09:48:03.319Z,21.62
2018-01-28T09:50:31.723Z,24.12
2018-01-28T09:53:00.133Z,25.67
2018-01-28T09:55:28.549Z,24.40
2018-01-28T09:57:56.877Z,24.55
2018-01-28T10:00:24.573Z,26.92
2018-01-28T10:02:52.120Z,29.27
2018-01-28T10:05:19.833Z,24.80
2018-01-28T10:07:47.516Z,19.50
2018-01-28T10:10:15.057Z,24.70
2018-01-28T10:12:42.793Z,23.45
2018-01-28T10:15:10.424Z,26.58
2018-01-28T10:17:38.350Z,27.05
2018-01-28T10:20:05.927Z,30.52
2018-01-28T10:22:33.841Z,26.80
2018-01-28T10:25:02.506Z,25.67
2018-01-28T10:27:30.939Z,26.05
2018-01-28T10:29:59.367Z,26.17
2018-01-28T10:32:27.875Z,24.33
2018-01-28T10:34:58.713Z,25.33
2018-01-28T10:37:26.352Z,23.70
2018-01-28T10:39:53.897Z,24.55
2018-01-28T10:42:22.288Z,25.35
2018-01-28T10:44:49.963Z,24.12
2018-01-28T10:47:17.567Z,26.35
2018-01-28T10:49:45.163Z,25.45
2018-01-28T10:52:12.750Z,24.23
2018-01-28T10:54:40.340Z,25.83
2018-01-28T10:57:08.072Z,24.25
2018-01-28T10:59:35.670Z,25.33
2018-01-28T11:02:03.428Z,25.25
2018-01-28T11:04:31.796Z,22.98
2018-01-28T11:06:59.290Z,21.67
2018-01-28T11:09:26.865Z,23.15
2018-01-28T11:11:54.462Z,22.73
2018-01-28T11:14:22.085Z,23.17
2018-01-28T11:16:49.691Z,25.70
2018-01-28T11:19:18.045Z,23.27
2018-01-28T11:21:46.505Z,23.80
2018-01-28T11:24:14.092Z,21.98
2018-01-28T11:26:41.758Z,18.95
2018-01-28T11:29:09.303Z,18.42
2018-01-28T11:31:36.871Z,19.40
2018-01-28T11:34:04.433Z,13.32
2018-01-28T11:36:31.970Z,19.33
2018-01-28T11:38:59.529Z,20.55
2018-01-28T11:41:27.075Z,18.08
2018-01-28T11:43:55.425Z,19.65
2018-01-28T11:46:23.134Z,17.35
2018-01-28T11:48:50.698Z,17.17
2018-01-28T11:51:18.267Z,17.77
2018-01-28T11:53:46.014Z,20.85
2018-01-28T11:56:13.573Z,19.48
2018-01-28T11:58:41.171Z,15.98
2018-01-28T12:01:08.717Z,15.75
2018-01-28T12:03:36.348Z,14.50
2018-01-28T12:06:04.512Z,14.73
2018-01-28T12:08:32.097Z,16.85
2018-01-28T12:10:59.724Z,15.30
2018-01-28T12:13:28.042Z,16.12
2018-01-28T12:15:56.254Z,16.45
2018-01-28T12:18:23.801Z,14.15
2018-01-28T12:20:51.416Z,16.98
2018-01-28T12:23:19.252Z,16.05
2018-01-28T12:25:47.025Z,17.00
2018-01-28T12:28:15.438Z,15.63
2018-01-28T12:30:43.054Z,16.30
2018-01-28T12:33:10.622Z,15.45
2018-01-28T12:35:38.953Z,16.98
2018-01-28T12:38:06.543Z,17.40
2018-01-28T12:40:34.113Z,16.65
2018-01-28T12:43:01.757Z,19.30
2018-01-28T12:45:30.108Z,16.42
2018-01-28T12:47:57.704Z,17.27
2018-01-28T12:50:25.490Z,18.87
2018-01-28T12:52:53.814Z,18.40
2018-01-28T12:55:24.025Z,15.38
2018-01-28T12:57:55.278Z,17.30
2018-01-28T13:00:28.778Z,15.32
2018-01-28T13:02:56.723Z,16.85
2018-01-28T13:05:24.711Z,19.30
2018-01-28T13:07:52.560Z,13.90
2018-01-28T13:10:21.688Z,16.90
2018-01-28T13:12:50.178Z,16.80
2018-01-28T13:15:18.545Z,16.73
2018-01-28T13:17:47.403Z,17.25
2018-01-28T13:20:17.329Z,17.20
2018-01-28T13:22:45.056Z,16.75
2018-01-28T13:25:12.852Z,16.85
2018-01-28T13:27:42.486Z,17.15
2018-01-28T13:30:12.779Z,17.00
2018-01-28T13:32:41.295Z,18.77
2018-01-28T13:35:08.981Z,17.65
2018-01-28T13:37:36.570Z,17.20
2018-01-28T13:40:04.291Z,16.73
2018-01-28T13:42:31.868Z,17.37
2018-01-28T13:44:59.486Z,16.90
2018-01-28T13:47:27.958Z,16.85
2018-01-28T13:49:55.555Z,17.00
2018-01-28T13:52:23.173Z,18.27
2018-01-28T13:54:51.007Z,18.98
2018-01-28T13:57:18.622Z,20.08
2018-01-28T13:59:46.183Z,17.52
2018-01-28T14:02:13.804Z,17.15
2018-01-28T14:07:15.234Z,17.20
2018-01-28T14:09:42.893Z,16.90
2018-01-28T14:12:10.466Z,18.42
2018-01-28T14:14:38.075Z,17.15
2018-01-28T14:17:05.801Z,18.50
2018-01-28T14:19:33.407Z,17.45
2018-01-28T14:22:01.021Z,19.05
2018-01-28T14:24:28.600Z,18.30
2018-01-28T14:26:56.249Z,15.73
2018-01-28T14:29:24.564Z,21.60
2018-01-28T14:31:53.542Z,20.55
2018-01-28T14:34:21.128Z,17.83
2018-01-28T14:36:48.939Z,18.17
2018-01-28T14:39:16.579Z,17.27
2018-01-28T14:41:44.219Z,17.62
2018-01-28T14:44:11.914Z,16.98
2018-01-28T14:46:39.510Z,17.00
2018-01-28T14:49:07.114Z,15.23
2018-01-28T14:51:34.706Z,15.68
2018-01-28T14:54:03.283Z,14.00
2018-01-28T14:56:31.649Z,15.95
2018-01-28T14:58:59.231Z,15.65
2018-01-28T15:01:26.839Z,14.75
2018-01-28T15:03:55.218Z,15.32
2018-01-28T15:06:23.515Z,15.45
2018-01-28T15:08:51.075Z,15.95
2018-01-28T15:11:18.724Z,15.35
2018-01-28T15:13:46.436Z,17.33
2018-01-28T15:16:14.017Z,18.10
2018-01-28T15:18:41.569Z,16.70
2018-01-28T15:21:09.109Z,16.33
2018-01-28T15:23:36.823Z,19.00
2018-01-28T15:26:04.535Z,14.87
2018-01-28T15:28:32.195Z,16.00
2018-01-28T15:30:59.821Z,15.57
2018-01-28T15:33:27.831Z,15.68
2018-01-28T15:35:56.211Z,13.85
2018-01-28T15:38:23.884Z,15.15
2018-01-28T15:40:51.467Z,15.50
2018-01-28T15:43:19.899Z,15.85
2018-01-28T15:45:47.610Z,13.90
2018-01-28T15:48:15.940Z,17.75
2018-01-28T15:50:43.881Z,15.30
2018-01-28T15:53:11.427Z,12.85
2018-01-28T15:55:39.061Z,12.45
2018-01-28T15:58:06.696Z,13.00
2018-01-28T16:00:34.308Z,14.52
2018-01-28T16:03:02.669Z,14.95
2018-01-28T16:05:30.302Z,13.05
2018-01-28T16:07:59.288Z,14.63
2018-01-28T16:10:27.898Z,14.85
2018-01-28T16:12:55.494Z,18.50
2018-01-28T16:15:23.673Z,13.20
2018-01-28T16:17:51.284Z,12.77
2018-01-28T16:20:18.872Z,15.55
2018-01-28T16:22:47.203Z,15.35
2018-01-28T16:25:14.842Z,15.88
2018-01-28T16:27:43.363Z,13.75
2018-01-28T16:30:11.169Z,14.77
2018-01-28T16:32:38.748Z,16.33
2018-01-28T16:35:06.458Z,17.15
2018-01-28T16:37:34.008Z,15.35
2018-01-28T16:40:01.612Z,15.80
2018-01-28T16:42:29.181Z,16.65
2018-01-28T16:44:56.825Z,16.10
2018-01-28T16:47:24.411Z,17.23
2018-01-28T16:49:52.037Z,16.20
2018-01-28T16:52:20.432Z,18.08
2018-01-28T16:54:48.085Z,16.02
2018-01-28T16:57:15.651Z,17.92
2018-01-28T16:59:43.235Z,18.60
2018-01-28T17:02:12.149Z,17.23
2018-01-28T17:04:40.451Z,17.80
2018-01-28T17:07:08.768Z,17.40
2018-01-28T17:09:36.397Z,16.27
2018-01-28T17:12:04.066Z,17.35
2018-01-28T17:14:31.697Z,16.40
2018-01-28T17:16:59.292Z,16.27
2018-01-28T17:19:27.039Z,15.90
2018-01-28T17:21:54.941Z,21.75
2018-01-28T17:24:23.273Z,18.75
2018-01-28T17:26:50.806Z,16.35
2018-01-28T17:31:52.479Z,19.50
2018-01-28T17:34:20.115Z,16.23
2018-01-28T17:36:47.662Z,18.35
2018-01-28T17:39:15.522Z,15.80
2018-01-28T17:41:43.919Z,15.25
2018-01-28T17:44:11.526Z,14.52
2018-01-28T17:46:39.191Z,13.15
2018-01-28T17:49:06.808Z,15.25
2018-01-28T17:51:34.368Z,16.55
2018-01-28T17:54:01.960Z,13.90
2018-01-28T17:56:29.616Z,13.95
2018-01-28T17:58:57.178Z,14.57
2018-01-28T18:01:24.741Z,15.20
2018-01-28T18:03:52.358Z,15.75
2018-01-28T18:06:19.963Z,16.25
2018-01-28T18:08:47.561Z,28.27
2018-01-28T18:11:15.102Z,16.10
2018-01-28T18:13:43.843Z,15.50
2018-01-28T18:16:11.527Z,13.00
2018-01-28T18:18:39.101Z,12.25
2018-01-28T18:21:06.650Z,15.40
2018-01-28T18:23:34.187Z,27.48
2018-01-28T18:26:01.803Z,40.20
2018-01-28T18:28:29.457Z,11.60
2018-01-28T18:30:57.027Z,14.27
2018-01-28T18:33:24.646Z,13.43
2018-01-28T18:35:52.391Z,13.30
2018-01-28T18:38:19.960Z,16.65
2018-01-28T18:40:47.665Z,13.82
2018-01-28T18:43:15.264Z,22.33
2018-01-28T18:45:42.896Z,15.13
2018-01-28T18:48:11.256Z,15.50
2018-01-28T18:50:39.874Z,14.75
2018-01-28T18:53:08.808Z,20.98
2018-01-28T18:55:38.535Z,16.87
2018-01-28T18:58:08.207Z,17.10
2018-01-28T19:00:36.833Z,17.87
2018-01-28T19:03:05.280Z,16.05
2018-01-28T19:05:37.055Z,21.90
2018-01-28T19:08:04.643Z,16.85
2018-01-28T19:10:32.258Z,18.12
2018-01-28T19:12:59.908Z,18.77
2018-01-28T19:15:27.613Z,19.17
2018-01-28T19:17:55.196Z,17.30
2018-01-28T19:20:22.805Z,21.27
2018-01-28T19:22:51.808Z,19.73
2018-01-28T19:25:19.429Z,20.10
2018-01-28T19:27:47.218Z,19.40
2018-01-28T19:30:14.874Z,19.45
2018-01-28T19:32:42.522Z,25.33
2018-01-28T19:35:10.352Z,19.83
2018-01-28T19:37:38.006Z,29.17
2018-01-28T19:40:05.683Z,29.40
2018-01-28T19:42:33.274Z,21.45
2018-01-28T19:45:00.900Z,24.92
2018-01-28T19:47:28.757Z,23.40
2018-01-28T19:49:59.523Z,23.25
2018-01-28T19:52:27.090Z,20.20
2018-01-28T19:54:54.714Z,21.30
2018-01-28T19:57:22.230Z,21.73
2018-01-28T19:59:49.841Z,20.62
2018-01-28T20:02:17.440Z,21.65
2018-01-28T20:04:45.802Z,22.70
2018-01-28T20:07:13.338Z,20.73
2018-01-28T20:09:40.899Z,20.48
2018-01-28T20:12:08.463Z,21.55
2018-01-28T20:14:36.175Z,21.25
2018-01-28T20:17:03.723Z,17.83
2018-01-28T20:19:32.028Z,22.83
2018-01-28T20:22:00.383Z,22.33
2018-01-28T20:24:28.161Z,23.73
2018-01-28T20:26:55.760Z,22.55
2018-01-28T20:29:23.344Z,19.67
2018-01-28T20:31:50.950Z,22.13
2018-01-28T20:34:19.421Z,23.08
2018-01-28T20:36:46.976Z,22.92
2018-01-28T20:39:14.571Z,22.52
2018-01-28T20:41:42.251Z,20.92
2018-01-28T20:44:09.795Z,22.90
2018-01-28T20:46:37.586Z,16.60
2018-01-28T20:49:05.188Z,18.65
2018-01-28T20:51:32.767Z,20.60
2018-01-28T20:54:00.447Z,17.83
2018-01-28T20:56:28.333Z,18.70
2018-01-28T20:58:55.888Z,18.80
2018-01-28T21:01:23.507Z,17.08
2018-01-28T21:03:51.104Z,19.25
2018-01-28T21:06:18.713Z,19.65
2018-01-28T21:08:47.055Z,18.50
2018-01-28T21:11:17.089Z,14.60
2018-01-28T21:13:44.745Z,17.20
2018-01-28T21:16:13.096Z,17.33
2018-01-28T21:18:41.446Z,15.80
2018-01-28T21:21:09.070Z,16.17
2018-01-28T21:23:36.703Z,17.75
2018-01-28T21:26:04.332Z,16.15
2018-01-28T21:28:31.908Z,14.85
2018-01-28T21:30:59.532Z,17.37
2018-01-28T21:33:27.141Z,17.48
2018-01-28T21:35:54.758Z,15.30
2018-01-28T21:38:23.128Z,15.75
2018-01-28T21:40:50.695Z,16.37
2018-01-28T21:43:19.044Z,16.67
2018-01-28T21:45:46.645Z,18.52
2018-01-28T21:48:16.650Z,16.37
2018-01-28T21:50:44.261Z,17.65
2018-01-28T21:53:11.801Z,17.65
2018-01-28T21:55:39.382Z,17.87
2018-01-28T21:58:08.485Z,17.12
2018-01-28T22:00:36.062Z,17.05
2018-01-28T22:03:03.676Z,19.60
2018-01-28T22:05:31.991Z,16.62
2018-01-28T22:07:59.557Z,17.95
2018-01-28T22:10:27.164Z,18.37
2018-01-28T22:12:54.790Z,17.55
2018-01-28T22:15:22.387Z,16.90
2018-01-28T22:17:50.895Z,15.90
2018-01-28T22:20:18.622Z,16.83
2018-01-28T22:22:46.179Z,16.02
2018-01-28T22:25:13.790Z,17.42
2018-01-28T22:27:44.898Z,17.00
2018-01-28T22:30:13.014Z,15.65
2018-01-28T22:32:41.115Z,15.90
2018-01-28T22:35:08.803Z,16.40
2018-01-28T22:37:36.401Z,16.10
2018-01-28T22:40:03.976Z,15.77
2018-01-28T22:42:32.352Z,16.35
2018-01-28T22:45:00.756Z,15.63
2018-01-28T22:47:28.337Z,15.25
2018-01-28T22:49:56.023Z,15.18
2018-01-28T22:52:23.604Z,16.00
2018-01-28T22:54:52.962Z,15.07
2018-01-28T22:57:20.545Z,15.82
2018-01-28T22:59:48.953Z,14.80
2018-01-28T23:02:16.581Z,14.75
2018-01-28T23:04:44.156Z,15.25
2018-01-28T23:07:11.771Z,16.77
2018-01-28T23:09:39.497Z,16.10
2018-01-28T23:12:07.039Z,16.25
2018-01-28T23:14:35.602Z,13.98
2018-01-28T23:17:03.266Z,17.00
2018-01-28T23:19:30.843Z,16.73
2018-01-28T23:21:58.446Z,16.70
2018-01-28T23:24:26.497Z,16.45
2018-01-28T23:26:54.331Z,12.77
2018-01-28T23:29:21.902Z,16.58
2018-01-28T23:31:49.539Z,17.67
2018-01-28T23:34:17.209Z,17.48
2018-01-28T23:36:45.382Z,15.75
2018-01-28T23:39:12.984Z,15.52
2018-01-28T23:41:41.511Z,16.92
2018-01-28T23:44:09.586Z,13.85
2018-01-28T23:46:38.269Z,15.55
2018-01-28T23:49:05.849Z,17.40
2018-01-28T23:51:34.227Z,15.85
2018-01-28T23:54:01.910Z,17.48
2018-01-28T23:56:29.841Z,18.85
2018-01-28T23:58:57.456Z,16.87
